Time;durP1;ratioP1;P1;durP2;ratioP2;P2;SDS_P1;SDS_P2;PMS_P1;PMS_P2;Temp;Humidity;BMP_temperature;BMP_pressure;BME280_temperature;BME280_humidity;BME280_pressure;Samples;Min_cycle;Max_cycle;Signal;HPM_P1;HPM_P2
2022/07/07 00:00:55;;;;;;;6.82;3.10;;;19.90;99.90;;;;;;4968448;28;25109;-71
2022/07/07 00:03:20;;;;;;;6.75;2.60;;;20.00;99.90;;;;;;4973259;28;25135;-70
2022/07/07 00:05:46;;;;;;;6.88;2.75;;;20.00;99.90;;;;;;4968246;28;25064;-73
2022/07/07 00:08:11;;;;;;;5.15;3.05;;;20.00;99.90;;;;;;4968054;28;25059;-71
2022/07/07 00:10:37;;;;;;;4.70;2.47;;;20.00;99.90;;;;;;4969409;28;25096;-70
2022/07/07 00:13:03;;;;;;;11.98;2.95;;;20.00;99.90;;;;;;4969184;28;25055;-71
2022/07/07 00:15:29;;;;;;;7.80;2.58;;;20.10;99.90;;;;;;4988560;28;25055;-70
2022/07/07 00:17:55;;;;;;;10.23;3.03;;;20.10;99.90;;;;;;4980500;28;25105;-70
2022/07/07 00:20:20;;;;;;;8.07;2.42;;;20.10;99.90;;;;;;4982155;28;25118;-71
2022/07/07 00:22:46;;;;;;;6.28;2.88;;;20.20;99.90;;;;;;4970609;28;25066;-71
2022/07/07 00:25:12;;;;;;;5.55;2.45;;;20.20;99.90;;;;;;4968752;28;25097;-69
2022/07/07 00:27:37;;;;;;;9.27;2.63;;;20.00;99.90;;;;;;4979562;28;25076;-69
2022/07/07 00:30:05;;;;;;;10.38;2.50;;;19.90;99.90;;;;;;4964258;28;25118;-71
2022/07/07 00:32:30;;;;;;;8.60;2.30;;;20.00;99.90;;;;;;4979034;28;25059;-68
2022/07/07 00:34:56;;;;;;;5.80;1.95;;;19.90;99.90;;;;;;4974744;28;25055;-71
2022/07/07 00:37:21;;;;;;;4.43;2.20;;;19.90;99.90;;;;;;4979377;28;25094;-68
2022/07/07 00:39:47;;;;;;;4.93;2.10;;;19.70;99.90;;;;;;4970109;28;25104;-69
2022/07/07 00:42:14;;;;;;;4.63;1.73;;;19.70;99.90;;;;;;4975029;28;25169;-70
2022/07/07 00:44:41;;;;;;;5.80;2.03;;;19.60;99.90;;;;;;4967799;28;25104;-69
2022/07/07 00:47:06;;;;;;;3.58;1.65;;;19.50;99.90;;;;;;4974109;28;25052;-71
2022/07/07 00:49:32;;;;;;;3.38;1.75;;;19.50;99.90;;;;;;4977513;28;25085;-70
2022/07/07 00:51:59;;;;;;;4.68;1.90;;;19.50;99.90;;;;;;4980323;28;25056;-71
2022/07/07 00:54:25;;;;;;;3.13;1.20;;;19.40;99.90;;;;;;4982843;28;25147;-71
2022/07/07 00:56:51;;;;;;;5.25;1.60;;;19.50;99.90;;;;;;4979953;28;25072;-69
2022/07/07 00:59:17;;;;;;;4.97;1.77;;;19.40;99.90;;;;;;4979565;28;25119;-71
2022/07/07 01:01:43;;;;;;;1.70;1.50;;;19.40;99.90;;;;;;4980630;28;25118;-69
2022/07/07 01:04:12;;;;;;;2.92;1.52;;;19.40;99.90;;;;;;4977549;28;25135;-71
2022/07/07 01:06:40;;;;;;;3.38;1.50;;;19.40;99.90;;;;;;4974147;28;25096;-70
2022/07/07 01:09:06;;;;;;;3.60;1.45;;;19.40;99.90;;;;;;4977826;28;25058;-69
2022/07/07 01:11:51;;;;;;;4.00;1.70;;;19.30;99.90;;;;;;4995838;28;25122;-70
2022/07/07 01:14:17;;;;;;;6.32;1.67;;;19.40;99.90;;;;;;4968161;28;25162;-71
2022/07/07 01:16:43;;;;;;;7.15;2.00;;;19.40;99.90;;;;;;4971812;28;25065;-69
2022/07/07 01:19:09;;;;;;;5.00;1.77;;;19.40;99.90;;;;;;4981224;28;25129;-71
2022/07/07 01:21:51;;;;;;;2.00;1.60;;;19.30;99.90;;;;;;4971696;28;25061;-68
2022/07/07 01:24:17;;;;;;;2.08;1.80;;;19.30;99.90;;;;;;4977915;28;25150;-69
2022/07/07 01:26:44;;;;;;;2.53;1.80;;;19.30;99.90;;;;;;4977881;28;25155;-71
2022/07/07 01:29:10;;;;;;;6.40;2.17;;;19.30;99.90;;;;;;4976979;28;25103;-69
2022/07/07 01:31:36;;;;;;;7.13;2.38;;;19.30;99.90;;;;;;4971357;28;25143;-71
2022/07/07 01:34:01;;;;;;;4.05;1.85;;;19.20;99.90;;;;;;4965733;28;25058;-72
2022/07/07 01:36:27;;;;;;;7.93;2.00;;;19.20;99.90;;;;;;4965661;28;25124;-69
2022/07/07 01:38:52;;;;;;;6.80;2.50;;;19.20;99.90;;;;;;4967363;28;25093;-71
2022/07/07 01:41:18;;;;;;;6.45;2.05;;;19.10;99.90;;;;;;4970043;28;25090;-70
2022/07/07 01:43:44;;;;;;;4.18;2.03;;;19.00;99.90;;;;;;4963022;28;25112;-69
2022/07/07 01:46:09;;;;;;;7.03;1.85;;;18.90;99.90;;;;;;4966286;28;25131;-71
2022/07/07 01:48:35;;;;;;;4.15;1.85;;;18.90;99.90;;;;;;4969552;28;25085;-69
2022/07/07 01:51:00;;;;;;;4.22;1.63;;;18.90;99.90;;;;;;4984792;28;25135;-68
2022/07/07 01:53:26;;;;;;;4.05;1.92;;;18.80;99.90;;;;;;4964046;28;25071;-69
2022/07/07 01:55:52;;;;;;;4.20;1.55;;;18.80;99.90;;;;;;4968294;28;25105;-70
2022/07/07 01:58:18;;;;;;;5.40;1.50;;;18.80;99.90;;;;;;4963912;28;25137;-69
2022/07/07 02:00:43;;;;;;;5.45;1.98;;;18.70;99.90;;;;;;4967744;28;25129;-68
2022/07/07 02:03:09;;;;;;;4.32;1.48;;;18.70;99.90;;;;;;4965979;28;25060;-68
2022/07/07 02:05:35;;;;;;;3.88;1.73;;;18.70;99.90;;;;;;4968053;28;25088;-70
2022/07/07 02:08:00;;;;;;;2.95;1.90;;;18.60;99.90;;;;;;4975554;28;25064;-68
2022/07/07 02:13:10;;;;;;;1.50;1.40;;;18.60;99.90;;;;;;4984056;28;25084;-68
2022/07/07 02:15:36;;;;;;;3.40;1.58;;;18.50;99.90;;;;;;4984214;28;25098;-68
2022/07/07 02:18:01;;;;;;;2.72;1.33;;;18.60;99.90;;;;;;4967008;28;25107;-69
2022/07/07 02:20:27;;;;;;;4.00;1.55;;;18.60;99.90;;;;;;4966960;28;25052;-68
2022/07/07 02:22:53;;;;;;;4.18;1.70;;;18.50;99.90;;;;;;4968977;28;25152;-69
2022/07/07 02:25:18;;;;;;;3.15;1.40;;;18.50;99.90;;;;;;4964849;28;25063;-68
2022/07/07 02:27:44;;;;;;;5.53;1.80;;;18.50;99.90;;;;;;4966429;28;25069;-70
2022/07/07 02:30:10;;;;;;;2.13;1.42;;;18.50;99.90;;;;;;4965694;28;25108;-69
2022/07/07 02:32:36;;;;;;;1.80;1.45;;;18.40;99.90;;;;;;4965563;28;25098;-70
2022/07/07 02:35:01;;;;;;;2.72;1.98;;;18.40;99.90;;;;;;4965771;28;25149;-70
2022/07/07 02:37:27;;;;;;;4.13;1.70;;;18.30;99.90;;;;;;4964912;28;25110;-69
2022/07/07 02:39:53;;;;;;;6.90;2.28;;;18.30;99.90;;;;;;4966775;28;25084;-68
2022/07/07 02:42:19;;;;;;;3.90;2.08;;;18.20;99.90;;;;;;4966550;28;25074;-70
2022/07/07 02:44:44;;;;;;;6.32;1.85;;;18.30;99.90;;;;;;4968999;28;25079;-70
2022/07/07 02:47:10;;;;;;;2.72;1.60;;;18.40;99.90;;;;;;4967402;28;25061;-69
2022/07/07 02:49:35;;;;;;;10.10;2.60;;;18.30;99.90;;;;;;4967315;28;25092;-69
2022/07/07 02:52:03;;;;;;;4.35;2.47;;;18.30;99.90;;;;;;4966652;28;25155;-68
2022/07/07 02:54:29;;;;;;;4.93;2.22;;;18.40;99.90;;;;;;4963095;28;25121;-68
2022/07/07 02:56:54;;;;;;;4.38;1.70;;;18.40;99.90;;;;;;4967173;28;25078;-71
2022/07/07 02:59:20;;;;;;;5.32;1.90;;;18.40;99.90;;;;;;4965809;28;25097;-70
2022/07/07 03:01:46;;;;;;;3.83;1.77;;;18.50;99.90;;;;;;4965551;28;25071;-68
2022/07/07 03:04:11;;;;;;;2.50;1.55;;;18.60;99.90;;;;;;4967981;28;25050;-69
2022/07/07 03:06:37;;;;;;;2.50;1.60;;;18.50;99.90;;;;;;4970612;28;25145;-69
2022/07/07 03:09:03;;;;;;;10.93;2.17;;;18.40;99.90;;;;;;4963615;28;25055;-69
2022/07/07 03:11:28;;;;;;;3.63;1.70;;;18.40;99.90;;;;;;4966179;28;25133;-69
2022/07/07 03:13:55;;;;;;;6.40;1.77;;;18.40;99.90;;;;;;4966179;28;25096;-70
2022/07/07 03:16:20;;;;;;;10.50;3.08;;;18.40;99.90;;;;;;4965737;28;25090;-68
2022/07/07 03:18:46;;;;;;;4.00;2.00;;;18.40;99.90;;;;;;4966387;28;25126;-69
2022/07/07 03:21:12;;;;;;;6.50;1.70;;;18.40;99.90;;;;;;4969033;28;25141;-68
2022/07/07 03:23:37;;;;;;;7.35;1.65;;;18.40;99.90;;;;;;4967707;28;25098;-68
2022/07/07 03:26:03;;;;;;;3.92;1.70;;;18.40;99.90;;;;;;4969492;28;25123;-71
2022/07/07 03:28:28;;;;;;;5.68;1.40;;;18.40;99.90;;;;;;4966697;28;25135;-71
2022/07/07 03:30:54;;;;;;;8.02;1.95;;;18.40;99.90;;;;;;4966177;28;25070;-70
2022/07/07 03:33:20;;;;;;;6.03;1.83;;;18.20;99.90;;;;;;4965937;28;25076;-71
2022/07/07 03:35:45;;;;;;;4.35;2.53;;;18.00;99.90;;;;;;4965896;28;25093;-69
2022/07/07 03:38:11;;;;;;;7.75;2.38;;;17.90;99.90;;;;;;4967143;28;25107;-68
2022/07/07 03:40:37;;;;;;;8.02;2.38;;;18.00;99.90;;;;;;4971356;28;25077;-69
2022/07/07 03:43:02;;;;;;;7.18;1.88;;;18.00;99.90;;;;;;4981196;28;25077;-68
2022/07/07 03:45:28;;;;;;;7.25;1.90;;;18.10;99.90;;;;;;4979363;28;25122;-68
2022/07/07 03:47:54;;;;;;;5.30;1.83;;;18.30;99.90;;;;;;4968949;28;25107;-71
2022/07/07 03:50:19;;;;;;;5.10;1.80;;;18.40;99.90;;;;;;4967418;28;25128;-70
2022/07/07 03:52:45;;;;;;;4.13;1.92;;;18.30;99.90;;;;;;4971145;28;25107;-70
2022/07/07 03:55:11;;;;;;;10.25;1.90;;;18.30;99.90;;;;;;4969371;28;25144;-68
2022/07/07 03:57:38;;;;;;;6.85;1.75;;;18.20;99.90;;;;;;4973576;28;25083;-71
2022/07/07 04:00:04;;;;;;;8.57;1.67;;;18.20;99.90;;;;;;4971358;28;25137;-70
2022/07/07 04:02:30;;;;;;;6.88;1.67;;;18.10;99.90;;;;;;4970614;28;25151;-68
2022/07/07 04:04:55;;;;;;;11.07;2.13;;;18.20;99.90;;;;;;4971525;28;25125;-70
2022/07/07 04:07:21;;;;;;;13.45;2.05;;;18.30;99.90;;;;;;4970586;28;25051;-69
2022/07/07 04:09:46;;;;;;;8.23;1.92;;;18.40;99.90;;;;;;4971072;28;25048;-69
2022/07/07 04:12:12;;;;;;;11.68;2.00;;;18.50;99.90;;;;;;4970872;28;25079;-70
2022/07/07 04:14:37;;;;;;;6.93;1.88;;;18.60;99.90;;;;;;4974143;28;25130;-69
2022/07/07 04:17:04;;;;;;;7.75;2.08;;;18.50;99.90;;;;;;4969263;28;25063;-69
2022/07/07 04:19:29;;;;;;;4.88;1.55;;;18.40;99.90;;;;;;4969221;28;25071;-70
2022/07/07 04:21:55;;;;;;;5.38;2.00;;;18.50;99.90;;;;;;4971368;28;25059;-69
2022/07/07 04:24:21;;;;;;;8.02;2.03;;;18.50;99.90;;;;;;4968977;28;25059;-69
2022/07/07 04:26:46;;;;;;;4.72;1.77;;;18.40;99.90;;;;;;4977011;28;25092;-70
2022/07/07 04:29:12;;;;;;;8.43;1.80;;;18.50;99.90;;;;;;4981612;28;25118;-68
2022/07/07 04:31:43;;;;;;;9.45;2.17;;;18.50;99.90;;;;;;4973491;28;25162;-70
2022/07/07 04:34:09;;;;;;;6.30;1.83;;;18.40;99.90;;;;;;4977551;28;25059;-69
2022/07/07 04:36:34;;;;;;;8.10;1.95;;;18.40;99.90;;;;;;4970302;28;25066;-69
2022/07/07 04:39:00;;;;;;;10.38;2.03;;;18.40;99.90;;;;;;4973665;28;25101;-70
2022/07/07 04:41:26;;;;;;;6.30;1.73;;;18.40;99.90;;;;;;4974751;28;25087;-68
2022/07/07 04:43:51;;;;;;;13.85;2.45;;;18.50;99.90;;;;;;4966293;28;25064;-70
2022/07/07 04:46:17;;;;;;;5.55;1.45;;;18.40;99.90;;;;;;4969547;28;25055;-68
2022/07/07 04:48:43;;;;;;;8.55;2.33;;;18.30;99.90;;;;;;4976108;28;25069;-71
2022/07/07 04:51:08;;;;;;;12.93;2.63;;;18.40;99.90;;;;;;4970696;28;25076;-71
2022/07/07 04:53:34;;;;;;;5.10;2.08;;;18.30;99.90;;;;;;4969306;28;25052;-69
2022/07/07 04:56:00;;;;;;;6.63;2.00;;;18.30;99.90;;;;;;4967854;28;25044;-70
2022/07/07 04:58:25;;;;;;;11.65;2.90;;;18.30;99.90;;;;;;4967283;28;25077;-69
2022/07/07 05:00:51;;;;;;;15.40;2.63;;;18.30;99.90;;;;;;4968266;28;25085;-69
2022/07/07 05:03:17;;;;;;;8.00;1.60;;;18.20;99.90;;;;;;4969537;28;25064;-70
2022/07/07 05:05:42;;;;;;;8.65;1.75;;;18.10;99.90;;;;;;4969811;28;25135;-69
2022/07/07 05:08:08;;;;;;;12.00;2.30;;;17.90;99.90;;;;;;4968661;28;25060;-69
2022/07/07 05:10:33;;;;;;;13.23;2.42;;;17.70;99.90;;;;;;4969727;28;25099;-71
2022/07/07 05:12:59;;;;;;;9.95;1.85;;;17.40;99.90;;;;;;4967032;28;25103;-70
2022/07/07 05:15:24;;;;;;;9.65;2.50;;;17.30;99.90;;;;;;4967437;28;25152;-72
2022/07/07 05:17:50;;;;;;;7.25;1.67;;;17.30;99.90;;;;;;4972578;28;25069;-70
2022/07/07 05:20:15;;;;;;;23.00;2.97;;;17.20;99.90;;;;;;4966234;28;25063;-70
2022/07/07 05:22:41;;;;;;;13.38;2.50;;;17.10;99.90;;;;;;4975253;28;25133;-69
2022/07/07 05:25:07;;;;;;;9.48;2.45;;;17.10;99.90;;;;;;4968830;28;25156;-69
2022/07/07 05:27:32;;;;;;;11.55;2.25;;;17.20;99.90;;;;;;4971685;28;25044;-67
2022/07/07 05:29:58;;;;;;;12.93;2.72;;;17.20;99.90;;;;;;4974893;28;25116;-70
2022/07/07 05:32:23;;;;;;;12.77;2.50;;;17.20;99.90;;;;;;4972284;28;25059;-68
2022/07/07 05:34:49;;;;;;;13.65;2.67;;;17.20;99.90;;;;;;4985545;28;25121;-67
2022/07/07 05:37:15;;;;;;;12.88;2.33;;;17.20;99.90;;;;;;4970057;28;25110;-71
2022/07/07 05:39:40;;;;;;;13.43;2.05;;;17.20;99.90;;;;;;4973521;28;25101;-70
2022/07/07 05:42:06;;;;;;;20.42;4.07;;;17.20;99.90;;;;;;4972706;28;25100;-68
2022/07/07 05:44:31;;;;;;;11.05;2.33;;;17.20;99.90;;;;;;4975101;28;25065;-72
2022/07/07 05:46:57;;;;;;;12.75;2.55;;;17.20;99.90;;;;;;4973147;28;25125;-68
2022/07/07 05:49:23;;;;;;;17.85;3.10;;;17.30;99.90;;;;;;4969937;28;25053;-69
2022/07/07 05:51:48;;;;;;;12.60;2.60;;;17.20;99.90;;;;;;4969355;28;25129;-68
2022/07/07 05:54:14;;;;;;;14.00;3.47;;;17.20;99.90;;;;;;4966275;28;25066;-68
2022/07/07 05:56:40;;;;;;;17.05;3.17;;;17.20;99.90;;;;;;4968655;28;25136;-69
2022/07/07 05:59:05;;;;;;;12.27;2.70;;;17.10;99.90;;;;;;4973948;28;25072;-67
2022/07/07 06:01:31;;;;;;;11.68;3.05;;;17.10;99.90;;;;;;4970554;28;25096;-68
2022/07/07 06:03:56;;;;;;;17.65;3.03;;;17.10;99.90;;;;;;4969815;28;25080;-70
2022/07/07 06:06:22;;;;;;;12.73;2.72;;;17.10;99.90;;;;;;4969959;28;25062;-69
2022/07/07 06:08:48;;;;;;;19.00;2.83;;;17.10;99.90;;;;;;4970672;28;25121;-68
2022/07/07 06:11:13;;;;;;;12.40;2.97;;;17.20;99.90;;;;;;4971016;28;25071;-72
2022/07/07 06:13:39;;;;;;;9.48;2.92;;;17.30;99.90;;;;;;4980347;28;25085;-71
2022/07/07 06:16:05;;;;;;;14.85;3.42;;;17.20;99.90;;;;;;4984015;28;25061;-73
2022/07/07 06:18:30;;;;;;;12.50;2.60;;;17.40;99.90;;;;;;4983889;28;25061;-68
2022/07/07 06:20:56;;;;;;;15.45;2.70;;;17.50;99.90;;;;;;4982465;28;25080;-68
2022/07/07 06:23:22;;;;;;;15.93;2.92;;;17.60;99.90;;;;;;4973864;28;25128;-72
2022/07/07 06:25:47;;;;;;;12.38;3.28;;;17.60;99.90;;;;;;4968060;28;25092;-69
2022/07/07 06:28:13;;;;;;;11.75;2.53;;;17.50;99.90;;;;;;4965702;28;25085;-68
2022/07/07 06:30:39;;;;;;;8.95;2.38;;;17.40;99.90;;;;;;4963495;28;25108;-70
2022/07/07 06:33:04;;;;;;;15.73;2.97;;;17.30;99.90;;;;;;4965512;28;25073;-71
2022/07/07 06:35:30;;;;;;;7.63;2.05;;;17.20;99.90;;;;;;4958172;28;25048;-70
2022/07/07 06:37:57;;;;;;;8.02;2.13;;;16.90;99.90;;;;;;4956661;28;25139;-72
2022/07/07 06:40:23;;;;;;;12.10;2.75;;;17.00;99.90;;;;;;4953510;28;25046;-72
2022/07/07 06:42:48;;;;;;;10.70;2.58;;;17.10;99.90;;;;;;4960434;28;25066;-67
2022/07/07 06:45:14;;;;;;;11.23;2.20;;;17.10;99.90;;;;;;4975806;28;25126;-69
2022/07/07 06:47:40;;;;;;;9.98;2.17;;;17.10;99.90;;;;;;4963989;28;25081;-70
2022/07/07 06:50:06;;;;;;;10.40;1.95;;;17.00;99.90;;;;;;4964657;28;25109;-69
2022/07/07 06:52:32;;;;;;;7.00;1.75;;;17.00;99.90;;;;;;4971178;28;25090;-67
2022/07/07 06:54:57;;;;;;;8.48;1.75;;;17.10;99.90;;;;;;4971936;28;25075;-68
2022/07/07 06:57:23;;;;;;;6.30;1.77;;;17.40;99.90;;;;;;4967408;28;25093;-68
2022/07/07 06:59:49;;;;;;;12.43;2.40;;;17.70;99.90;;;;;;4963812;28;25082;-68
2022/07/07 07:02:14;;;;;;;8.32;2.50;;;17.80;99.90;;;;;;4966610;28;25157;-70
2022/07/07 07:04:40;;;;;;;8.18;2.17;;;17.80;99.90;;;;;;4966045;28;25150;-68
2022/07/07 07:07:06;;;;;;;12.77;2.30;;;17.70;99.90;;;;;;4962200;28;25077;-69
2022/07/07 07:09:31;;;;;;;9.23;2.30;;;18.10;99.90;;;;;;4961760;28;25092;-69
2022/07/07 07:11:57;;;;;;;10.25;2.08;;;18.00;99.90;;;;;;4968877;28;25114;-69
2022/07/07 07:14:22;;;;;;;8.20;1.73;;;18.30;99.90;;;;;;4973864;28;25055;-69
2022/07/07 07:16:48;;;;;;;12.70;2.30;;;18.20;99.90;;;;;;4983937;28;25097;-68
2022/07/07 07:19:14;;;;;;;6.45;1.90;;;18.20;99.90;;;;;;4978144;28;25112;-69
2022/07/07 07:21:40;;;;;;;9.30;2.05;;;17.80;99.90;;;;;;4981060;28;25059;-69
2022/07/07 07:24:06;;;;;;;8.75;1.60;;;17.80;99.90;;;;;;4971464;28;25082;-68
2022/07/07 07:26:32;;;;;;;7.15;1.73;;;17.70;99.90;;;;;;4979629;28;25064;-68
2022/07/07 07:28:57;;;;;;;10.82;2.03;;;17.60;99.90;;;;;;4984405;28;25064;-69
2022/07/07 07:31:23;;;;;;;14.57;2.50;;;17.60;99.90;;;;;;4968632;28;25065;-67
2022/07/07 07:33:49;;;;;;;7.32;1.67;;;17.60;99.90;;;;;;4971743;28;25078;-69
2022/07/07 07:36:15;;;;;;;6.97;2.08;;;17.60;99.90;;;;;;4981707;28;25064;-69
2022/07/07 07:38:40;;;;;;;9.13;2.13;;;17.90;99.90;;;;;;4975323;28;25102;-71
2022/07/07 07:41:08;;;;;;;10.55;1.67;;;18.00;99.90;;;;;;4980462;28;25072;-69
2022/07/07 07:43:34;;;;;;;9.18;1.52;;;17.70;99.90;;;;;;4979429;28;25104;-68
2022/07/07 07:46:00;;;;;;;9.77;1.80;;;17.80;99.90;;;;;;4979227;28;25057;-69
2022/07/07 07:48:25;;;;;;;6.22;1.90;;;17.60;99.90;;;;;;4975105;28;25060;-69
2022/07/07 07:50:51;;;;;;;4.80;1.80;;;17.70;99.90;;;;;;4980342;28;25140;-69
2022/07/07 07:53:17;;;;;;;10.82;1.90;;;17.80;99.90;;;;;;4977165;28;25105;-70
2022/07/07 07:55:44;;;;;;;13.07;1.63;;;18.00;99.90;;;;;;4986341;28;25096;-69
2022/07/07 07:58:10;;;;;;;5.75;1.08;;;18.00;99.90;;;;;;5004367;28;25064;-70
2022/07/07 08:00:36;;;;;;;6.40;1.10;;;17.90;99.90;;;;;;4980307;28;25140;-68
2022/07/07 08:03:02;;;;;;;2.97;1.10;;;17.90;99.90;;;;;;4990339;28;25051;-69
2022/07/07 08:05:28;;;;;;;6.88;1.17;;;17.80;99.90;;;;;;4984721;28;25062;-68
2022/07/07 08:07:53;;;;;;;7.90;1.10;;;17.80;99.90;;;;;;4980399;28;25070;-70
2022/07/07 08:10:19;;;;;;;5.25;1.27;;;17.50;99.90;;;;;;4979686;28;25130;-69
2022/07/07 08:12:47;;;;;;;6.38;1.23;;;17.50;99.90;;;;;;4977212;28;25081;-68
2022/07/07 08:15:14;;;;;;;8.32;1.65;;;17.30;99.90;;;;;;4969657;28;25057;-69
2022/07/07 08:17:40;;;;;;;4.70;1.48;;;17.40;99.90;;;;;;4980625;28;25066;-69
2022/07/07 08:20:07;;;;;;;10.27;1.67;;;17.60;99.90;;;;;;4989434;28;25077;-69
2022/07/07 08:22:33;;;;;;;13.30;2.20;;;17.70;99.90;;;;;;4986274;28;25063;-71
2022/07/07 08:24:58;;;;;;;9.50;1.83;;;17.50;99.90;;;;;;4984502;28;25062;-68
2022/07/07 08:27:24;;;;;;;11.18;1.85;;;17.50;99.90;;;;;;4971953;28;25091;-69
2022/07/07 08:29:50;;;;;;;13.48;1.90;;;17.50;99.90;;;;;;4983496;28;25107;-68
2022/07/07 08:32:15;;;;;;;18.40;2.03;;;17.40;99.90;;;;;;4968987;28;25073;-70
2022/07/07 08:34:43;;;;;;;7.40;1.63;;;17.30;99.90;;;;;;4983657;28;25103;-71
2022/07/07 08:37:10;;;;;;;6.43;1.90;;;17.50;99.90;;;;;;4978398;28;25063;-70
2022/07/07 08:39:36;;;;;;;7.22;1.75;;;17.40;99.90;;;;;;4972639;28;25077;-70
2022/07/07 08:42:02;;;;;;;10.93;1.95;;;17.30;99.90;;;;;;4975434;28;25060;-70
2022/07/07 08:44:28;;;;;;;8.80;1.48;;;17.20;99.90;;;;;;4976236;28;25070;-69
2022/07/07 08:46:54;;;;;;;7.72;1.90;;;17.30;99.90;;;;;;4974057;28;25069;-69
2022/07/07 08:49:19;;;;;;;8.32;1.90;;;17.40;99.90;;;;;;4973412;28;25132;-70
2022/07/07 08:51:46;;;;;;;8.23;1.85;;;17.50;99.90;;;;;;4971231;28;25126;-69
2022/07/07 08:54:14;;;;;;;7.97;1.73;;;18.00;99.90;;;;;;4978792;28;25059;-69
2022/07/07 08:56:40;;;;;;;6.57;1.30;;;18.10;99.90;;;;;;4993800;28;25062;-70
2022/07/07 08:59:11;;;;;;;4.78;1.23;;;17.90;99.90;;;;;;4989446;28;25056;-68
2022/07/07 09:01:37;;;;;;;6.75;1.45;;;17.80;99.90;;;;;;4979282;28;25138;-69
2022/07/07 09:04:04;;;;;;;3.95;0.90;;;18.00;99.90;;;;;;4985585;28;25116;-70
2022/07/07 09:06:30;;;;;;;9.02;1.42;;;18.40;99.90;;;;;;4978694;28;25066;-69
2022/07/07 09:08:56;;;;;;;5.97;1.05;;;18.20;99.90;;;;;;4983046;28;25085;-69
2022/07/07 09:11:26;;;;;;;6.75;1.52;;;18.20;99.90;;;;;;4977819;28;25117;-69
2022/07/07 09:13:56;;;;;;;2.50;0.82;;;18.20;99.90;;;;;;4979930;28;25074;-71
2022/07/07 09:16:23;;;;;;;6.93;1.25;;;18.10;99.90;;;;;;4983458;28;25067;-71
2022/07/07 09:18:49;;;;;;;5.50;1.23;;;18.10;99.90;;;;;;4980768;28;25128;-69
2022/07/07 09:21:29;;;;;;;6.57;1.40;;;17.70;99.90;;;;;;4976696;28;25096;-72
2022/07/07 09:24:00;;;;;;;3.92;1.50;;;17.80;99.90;;;;;;4964447;28;25079;-71
2022/07/07 09:26:45;;;;;;;8.25;1.27;;;18.00;99.90;;;;;;4965461;28;25107;-70
2022/07/07 09:29:20;;;;;;;9.43;2.40;;;18.20;99.90;;;;;;4966808;28;25096;-70
2022/07/07 09:31:58;;;;;;;6.43;1.02;;;18.10;99.90;;;;;;4973505;28;25116;-70
2022/07/07 09:34:27;;;;;;;8.45;1.70;;;18.00;99.90;;;;;;4971592;28;25048;-69
2022/07/07 09:39:48;;;;;;;8.65;1.55;;;17.90;99.90;;;;;;4979158;28;25109;-71
2022/07/07 09:42:33;;;;;;;7.03;1.80;;;18.00;99.90;;;;;;4968101;28;25073;-69
2022/07/07 09:45:05;;;;;;;11.65;1.70;;;18.10;99.90;;;;;;4965809;28;25086;-70
2022/07/07 09:47:32;;;;;;;;;;;18.10;99.90;;;;;;4964001;28;25141;-69
2022/07/07 09:50:00;;;;;;;8.43;1.80;;;17.90;99.90;;;;;;4965229;28;24122;-69
2022/07/07 09:52:28;;;;;;;11.88;2.03;;;17.80;99.90;;;;;;4979930;28;25096;-70
2022/07/07 09:54:54;;;;;;;5.97;1.88;;;17.70;99.90;;;;;;4962022;28;25141;-69
2022/07/07 09:57:19;;;;;;;8.85;1.90;;;18.10;99.90;;;;;;4964289;28;25085;-69
2022/07/07 09:59:46;;;;;;;9.77;2.47;;;18.20;99.90;;;;;;4971310;28;25117;-70
2022/07/07 10:02:19;;;;;;;10.48;2.13;;;18.10;99.90;;;;;;4971474;28;25088;-69
2022/07/07 10:04:48;;;;;;;12.00;2.05;;;18.00;99.90;;;;;;4961896;28;25111;-69
2022/07/07 10:07:18;;;;;;;16.40;2.58;;;17.90;99.90;;;;;;4965494;28;25050;-68
2022/07/07 10:09:47;;;;;;;9.18;2.25;;;17.90;99.90;;;;;;4965373;28;25150;-69
2022/07/07 10:12:16;;;;;;;11.43;2.25;;;17.70;99.90;;;;;;4965655;28;25107;-70
2022/07/07 10:14:44;;;;;;;15.90;2.17;;;17.80;99.90;;;;;;4982400;28;25151;-71
2022/07/07 10:17:12;;;;;;;11.38;2.25;;;18.10;99.90;;;;;;4965996;28;25145;-69
2022/07/07 10:19:38;;;;;;;12.80;2.72;;;18.20;99.90;;;;;;4967930;28;25134;-68
2022/07/07 10:22:05;;;;;;;8.52;1.90;;;18.00;99.90;;;;;;4967997;28;25087;-70
2022/07/07 10:24:35;;;;;;;8.95;2.35;;;17.70;99.90;;;;;;4965830;28;25076;-68
2022/07/07 10:27:03;;;;;;;7.78;2.20;;;17.70;99.90;;;;;;4963747;28;25127;-68
2022/07/07 10:29:43;;;;;;;8.98;2.38;;;17.70;99.90;;;;;;4972838;28;25126;-68
2022/07/07 10:32:15;;;;;;;7.15;2.00;;;17.90;99.90;;;;;;4976147;28;25048;-72
2022/07/07 10:34:52;;;;;;;15.10;2.40;;;18.00;99.90;;;;;;4989227;28;25059;-71
2022/07/07 10:37:20;;;;;;;6.05;2.10;;;18.00;99.90;;;;;;4974463;28;25179;-70
2022/07/07 10:39:49;;;;;;;5.63;1.63;;;18.30;99.90;;;;;;4971508;28;25088;-70
2022/07/07 10:42:17;;;;;;;4.85;1.35;;;18.60;99.90;;;;;;4968908;28;25094;-69
2022/07/07 10:44:48;;;;;;;4.63;1.33;;;18.30;99.90;;;;;;4963307;28;25053;-70
2022/07/07 10:47:17;;;;;;;5.47;1.63;;;18.40;99.90;;;;;;4963141;28;25140;-69
2022/07/07 10:49:48;;;;;;;8.63;2.33;;;18.50;99.90;;;;;;4965331;28;25098;-69
2022/07/07 10:52:16;;;;;;;6.82;1.73;;;18.40;99.90;;;;;;4964288;28;25071;-69
2022/07/07 10:54:48;;;;;;;6.00;1.65;;;18.50;99.90;;;;;;4967940;28;25083;-70
2022/07/07 10:57:22;;;;;;;7.43;1.85;;;18.70;99.90;;;;;;4979158;28;25118;-68
2022/07/07 10:59:58;;;;;;;10.98;2.47;;;19.00;99.90;;;;;;4966275;28;25056;-73
2022/07/07 11:02:35;;;;;;;8.23;1.35;;;19.20;99.90;;;;;;4973912;28;25128;-70
2022/07/07 11:05:22;;;;;;;8.73;1.75;;;19.10;99.90;;;;;;4977479;28;25072;-69
2022/07/07 11:07:57;;;;;;;8.32;2.25;;;18.90;99.90;;;;;;4972970;28;25128;-69
2022/07/07 11:10:43;;;;;;;8.43;2.00;;;18.60;99.90;;;;;;4968913;28;25113;-69
2022/07/07 11:13:36;;;;;;;8.68;2.03;;;18.10;99.90;;;;;;4967184;28;25087;-68
2022/07/07 11:16:21;;;;;;;7.53;1.95;;;18.00;99.90;;;;;;4961865;28;25121;-70
2022/07/07 11:18:50;;;;;;;3.47;1.33;;;17.60;99.90;;;;;;4967652;28;25147;-69
2022/07/07 11:21:16;;;;;;;13.35;1.60;;;17.80;99.90;;;;;;4969502;28;25092;-71
2022/07/07 11:23:51;;;;;;;3.88;1.23;;;17.90;99.90;;;;;;4961586;28;25067;-69
2022/07/07 11:26:20;;;;;;;7.72;1.77;;;18.40;99.90;;;;;;4960903;28;25069;-70
2022/07/07 11:28:46;;;;;;;4.70;1.85;;;18.70;99.90;;;;;;4970759;28;25071;-69
2022/07/07 11:31:12;;;;;;;6.03;1.80;;;18.80;99.90;;;;;;4968481;28;25199;-70
2022/07/07 11:33:39;;;;;;;5.28;1.58;;;18.60;99.90;;;;;;4981950;28;25131;-71
2022/07/07 11:36:21;;;;;;;4.07;1.58;;;18.20;99.90;;;;;;4977175;28;25175;-73
2022/07/07 11:38:50;;;;;;;7.30;1.23;;;17.70;99.90;;;;;;4985621;28;25046;-71
2022/07/07 11:41:16;;;;;;;2.47;0.93;;;17.50;99.90;;;;;;4975349;28;25095;-71
2022/07/07 11:43:41;;;;;;;4.20;1.20;;;17.60;99.90;;;;;;4972961;28;25078;-71
2022/07/07 11:46:07;;;;;;;2.15;1.20;;;18.00;99.90;;;;;;4966334;28;25086;-70
2022/07/07 11:48:41;;;;;;;3.97;1.20;;;18.20;99.90;;;;;;4966173;28;25109;-70
2022/07/07 11:51:07;;;;;;;2.78;1.60;;;18.40;99.90;;;;;;4967218;28;25107;-71
2022/07/07 11:53:33;;;;;;;3.10;2.20;;;18.20;99.90;;;;;;4963605;28;25072;-69
2022/07/07 11:56:00;;;;;;;4.68;1.50;;;17.70;99.90;;;;;;4963920;28;25057;-70
2022/07/07 11:58:25;;;;;;;7.68;2.08;;;17.90;99.90;;;;;;4965090;28;25087;-70
2022/07/07 12:00:54;;;;;;;5.60;2.20;;;17.70;99.90;;;;;;4963154;28;25087;-70
2022/07/07 12:03:35;;;;;;;8.93;2.08;;;17.50;99.90;;;;;;4964020;28;25151;-70
2022/07/07 12:06:02;;;;;;;12.20;2.20;;;17.40;99.90;;;;;;4962254;28;25062;-70
2022/07/07 12:08:33;;;;;;;5.95;2.15;;;17.60;99.90;;;;;;4964508;28;25062;-69
2022/07/07 12:10:59;;;;;;;7.82;1.98;;;17.80;99.90;;;;;;4967265;28;25143;-70
2022/07/07 12:13:26;;;;;;;5.75;1.95;;;17.70;99.90;;;;;;4969208;28;25096;-69
2022/07/07 12:15:53;;;;;;;8.15;1.90;;;17.70;99.90;;;;;;4968950;28;25127;-71
2022/07/07 12:18:34;;;;;;;12.05;3.08;;;18.00;99.90;;;;;;4967136;28;25140;-70
2022/07/07 12:21:05;;;;;;;16.60;2.95;;;18.30;99.90;;;;;;4963399;28;25073;-70
2022/07/07 12:23:36;;;;;;;25.77;2.85;;;18.10;99.90;;;;;;4970665;28;25143;-70
2022/07/07 12:26:13;;;;;;;11.70;2.95;;;18.50;99.90;;;;;;4965338;28;25117;-69
2022/07/07 12:28:39;;;;;;;9.45;2.88;;;18.40;99.90;;;;;;4969532;28;25098;-69
2022/07/07 12:31:07;;;;;;;15.43;2.92;;;18.30;99.90;;;;;;4964230;28;25105;-67
2022/07/07 12:33:40;;;;;;;15.15;2.90;;;18.10;99.90;;;;;;4962154;28;25074;-75
2022/07/07 12:36:17;;;;;;;18.42;3.35;;;18.30;99.90;;;;;;4969334;28;25102;-70
2022/07/07 12:38:52;;;;;;;8.07;2.90;;;18.40;99.90;;;;;;4965895;28;25066;-70
2022/07/07 12:41:28;;;;;;;15.25;2.67;;;18.30;99.90;;;;;;4964889;28;25114;-69
2022/07/07 12:43:56;;;;;;;13.88;2.58;;;18.20;99.90;;;;;;4966877;28;25065;-70
2022/07/07 12:46:32;;;;;;;14.05;2.65;;;18.40;99.90;;;;;;4960806;28;25143;-71
2022/07/07 12:48:59;;;;;;;26.35;3.83;;;18.50;99.90;;;;;;4964438;28;25137;-71